메인 페이지
METAR-TAF:

METAR-TAF

공항 :

Meridian Regional Airport (Key Field)

머리디언, 미시시피, 미국

위도: 32-20-17N, 경도: 088-44-52W, 고도: 90m

현재 날씨관측

예보는 50분 전, 06:58시(UTC)에 발표되었습니다.
남남서3kt
온도 21°C
습도 88%
기압 1016 hPa
시정: 16.1km
맑음

METAR: KMEI 200658Z AUTO 21003KT 10SM CLR 21/19 A3001 RMK AO2 SLP159 T02060189

시각: 02:48 (07:48 UTC)

예보

예보는 2 시간 13분 전, 05:35시(UTC)에 발표되었습니다.
예보 대상 시간: 20일 06시부터 21일 06시까지 (UTC)
남남서3kt
시정: 10km
고도 800ft 상공 구름 보통
고도 25000ft 상공 구름 많음
20일 0900시부터 (UTC)
kt
시정: 9.7km
고도 800ft 상공 구름 많음
박무
20일 1100시부터 (UTC)
kt
시정: 6.4km
고도 300ft 상공 구름 많음
박무
20일 1300시부터 (UTC)
3kt
시정: 10km
고도 800ft 상공 구름 많음
20일 1500시부터 (UTC)
5kt
시정: 10km
고도 3500ft 상공 구름 조금
고도 25000ft 상공 구름 보통

TAF: KMEI 200535Z 2006/2106 20003KT P6SM SCT008 BKN250 FM200900 00000KT 6SM BR BKN008 FM201100 00000KT 4SM BR BKN003 FM201300 19003KT P6SM BKN008 FM201500 19005KT P6SM FEW035 SCT250

4,000개 이상의 공항 관측 자료 및 예보 (METAR 및 TAF 보고).

지도상에서 검색 가능한 기상관측소가 노란 점과 빨간 점으로 표시되어 있습니다.

기상관측소 명을 보려면 표시 위로 마우스를 이동하세요.

날씨 관측과 예보를 보려면 클릭하세요.

지도 변경 : 확대하려면 엑스 표시가 있는 녹색 버튼, 축소하려면 빼기 표시가 있는 녹색 버튼, 다음 페이지의 지도를 보려면 녹색 화살표를 클릭하세요.


METAR-TAF: